Mc Indoe Falls, Vermont
Current Conditions -  °F | °C
As of 3:55 PM on Saturday 25 Oct 2014 (Local Time) from KCDA Reporting Station
Broken Clouds Broken Clouds  
Wind Chill: 57°   Ceiling: 4200
Heat Index: 57°   Visibility: 10mi
Dew Point: 38°   Wind: 0mph
Humidity: 50%   Direction: NA
Pressure: 29.58"   Gusts: NA
Location:  44.2588°N, 72.0585°W
Report Text: KCDA 251955Z AUTO 00000KT 10SM BKN042 BKN048 14/03 A2958 RMK AO2 T01370033
Loading
Personal Weather Stations






























Interactive Weather Map New forecast layout! Learn more

10-Day Weather Forecast

Advertisements
Track Severe Weather on mobile